sensor_id;sensor_type;location;lat;lon;timestamp;pressure;altitude;pressure_sealevel;temperature;humidity
36190;BME280;22232;50.914;13.858;2023-05-25T00:01:48;98500.94;;;7.54;100.00
36190;BME280;22232;50.914;13.858;2023-05-25T00:04:15;98492.34;;;7.52;100.00
36190;BME280;22232;50.914;13.858;2023-05-25T00:06:46;98494.16;;;7.51;100.00
36190;BME280;22232;50.914;13.858;2023-05-25T00:09:13;98494.38;;;7.50;100.00
36190;BME280;22232;50.914;13.858;2023-05-25T00:11:41;98493.75;;;7.48;100.00
36190;BME280;22232;50.914;13.858;2023-05-25T00:14:09;98498.22;;;7.47;100.00
36190;BME280;22232;50.914;13.858;2023-05-25T00:16:37;98496.81;;;7.51;100.00
36190;BME280;22232;50.914;13.858;2023-05-25T00:19:07;98499.69;;;7.50;100.00
36190;BME280;22232;50.914;13.858;2023-05-25T00:21:37;98499.25;;;7.46;100.00
36190;BME280;22232;50.914;13.858;2023-05-25T00:24:05;98503.75;;;7.46;100.00
36190;BME280;22232;50.914;13.858;2023-05-25T00:26:35;98497.00;;;7.43;100.00
36190;BME280;22232;50.914;13.858;2023-05-25T00:29:03;98496.19;;;7.43;100.00
36190;BME280;22232;50.914;13.858;2023-05-25T00:31:31;98499.81;;;7.42;100.00
36190;BME280;22232;50.914;13.858;2023-05-25T00:34:00;98495.53;;;7.41;100.00
36190;BME280;22232;50.914;13.858;2023-05-25T00:36:27;98495.28;;;7.35;100.00
36190;BME280;22232;50.914;13.858;2023-05-25T00:38:55;98489.16;;;7.35;100.00
36190;BME280;22232;50.914;13.858;2023-05-25T00:41:23;98486.09;;;7.31;100.00
36190;BME280;22232;50.914;13.858;2023-05-25T00:43:55;98486.09;;;7.31;100.00
36190;BME280;22232;50.914;13.858;2023-05-25T00:46:23;98475.84;;;7.28;100.00
36190;BME280;22232;50.914;13.858;2023-05-25T00:48:53;98483.81;;;7.28;100.00
36190;BME280;22232;50.914;13.858;2023-05-25T00:51:21;98480.34;;;7.28;100.00
36190;BME280;22232;50.914;13.858;2023-05-25T00:53:49;98477.44;;;7.23;100.00
36190;BME280;22232;50.914;13.858;2023-05-25T00:56:25;98471.06;;;7.17;100.00
36190;BME280;22232;50.914;13.858;2023-05-25T00:58:56;98480.22;;;7.15;100.00
36190;BME280;22232;50.914;13.858;2023-05-25T01:01:27;98474.91;;;7.15;100.00
36190;BME280;22232;50.914;13.858;2023-05-25T01:04:00;98482.88;;;7.15;100.00
36190;BME280;22232;50.914;13.858;2023-05-25T01:06:31;98494.13;;;7.17;100.00
36190;BME280;22232;50.914;13.858;2023-05-25T01:09:02;98482.69;;;7.16;100.00
36190;BME280;22232;50.914;13.858;2023-05-25T01:11:33;98479.16;;;7.09;100.00
36190;BME280;22232;50.914;13.858;2023-05-25T01:14:01;98481.59;;;7.04;100.00
36190;BME280;22232;50.914;13.858;2023-05-25T01:16:29;98491.00;;;7.06;100.00
36190;BME280;22232;50.914;13.858;2023-05-25T01:19:00;98490.34;;;7.04;100.00
36190;BME280;22232;50.914;13.858;2023-05-25T01:21:43;98481.75;;;7.02;100.00
36190;BME280;22232;50.914;13.858;2023-05-25T01:24:18;98488.72;;;7.03;100.00
36190;BME280;22232;50.914;13.858;2023-05-25T01:26:54;98487.50;;;7.06;100.00
36190;BME280;22232;50.914;13.858;2023-05-25T01:29:25;98487.31;;;7.07;100.00
36190;BME280;22232;50.914;13.858;2023-05-25T01:31:55;98490.16;;;7.06;100.00
36190;BME280;22232;50.914;13.858;2023-05-25T01:34:25;98488.78;;;7.10;100.00
36190;BME280;22232;50.914;13.858;2023-05-25T01:36:54;98483.03;;;7.06;100.00
36190;BME280;22232;50.914;13.858;2023-05-25T01:39:22;98485.69;;;7.06;100.00
36190;BME280;22232;50.914;13.858;2023-05-25T01:41:50;98484.78;;;6.99;100.00
36190;BME280;22232;50.914;13.858;2023-05-25T01:44:18;98487.44;;;6.99;100.00
36190;BME280;22232;50.914;13.858;2023-05-25T01:46:49;98485.81;;;6.98;100.00
36190;BME280;22232;50.914;13.858;2023-05-25T01:49:34;98500.09;;;6.97;100.00
36190;BME280;22232;50.914;13.858;2023-05-25T01:52:21;98491.88;;;6.92;100.00
36190;BME280;22232;50.914;13.858;2023-05-25T01:54:52;98494.41;;;7.00;100.00
36190;BME280;22232;50.914;13.858;2023-05-25T01:57:23;98495.41;;;6.99;100.00
36190;BME280;22232;50.914;13.858;2023-05-25T01:59:54;98491.94;;;6.99;100.00
36190;BME280;22232;50.914;13.858;2023-05-25T02:02:26;98494.97;;;6.96;100.00
36190;BME280;22232;50.914;13.858;2023-05-25T02:04:55;98493.13;;;6.96;100.00
36190;BME280;22232;50.914;13.858;2023-05-25T02:07:23;98485.56;;;6.93;100.00
36190;BME280;22232;50.914;13.858;2023-05-25T02:09:51;98494.53;;;6.92;100.00
36190;BME280;22232;50.914;13.858;2023-05-25T02:12:19;98498.59;;;6.88;100.00
36190;BME280;22232;50.914;13.858;2023-05-25T02:14:46;98492.81;;;6.84;100.00
36190;BME280;22232;50.914;13.858;2023-05-25T02:17:15;98495.84;;;6.81;100.00
36190;BME280;22232;50.914;13.858;2023-05-25T02:19:44;98500.97;;;6.83;100.00
36190;BME280;22232;50.914;13.858;2023-05-25T02:22:13;98502.53;;;6.77;100.00
36190;BME280;22232;50.914;13.858;2023-05-25T02:24:40;98501.91;;;6.75;100.00
36190;BME280;22232;50.914;13.858;2023-05-25T02:27:08;98505.94;;;6.71;100.00
36190;BME280;22232;50.914;13.858;2023-05-25T02:29:39;98510.59;;;6.69;100.00
36190;BME280;22232;50.914;13.858;2023-05-25T02:32:07;98515.47;;;6.65;100.00
36190;BME280;22232;50.914;13.858;2023-05-25T02:34:35;98518.69;;;6.61;100.00
36190;BME280;22232;50.914;13.858;2023-05-25T02:37:02;98510.75;;;6.61;100.00
36190;BME280;22232;50.914;13.858;2023-05-25T02:39:30;98504.00;;;6.58;100.00
36190;BME280;22232;50.914;13.858;2023-05-25T02:41:59;98509.94;;;6.60;100.00
36190;BME280;22232;50.914;13.858;2023-05-25T02:44:27;98510.75;;;6.61;100.00
36190;BME280;22232;50.914;13.858;2023-05-25T02:46:55;98507.28;;;6.60;100.00
36190;BME280;22232;50.914;13.858;2023-05-25T02:49:23;98510.31;;;6.57;100.00
36190;BME280;22232;50.914;13.858;2023-05-25T02:51:50;98515.63;;;6.57;100.00
36190;BME280;22232;50.914;13.858;2023-05-25T02:54:18;98515.63;;;6.57;100.00
36190;BME280;22232;50.914;13.858;2023-05-25T02:56:45;98518.06;;;6.59;100.00
36190;BME280;22232;50.914;13.858;2023-05-25T02:59:15;98515.25;;;6.60;100.00
36190;BME280;22232;50.914;13.858;2023-05-25T03:01:44;98527.47;;;6.61;100.00
36190;BME280;22232;50.914;13.858;2023-05-25T03:04:12;98528.72;;;6.65;100.00
36190;BME280;22232;50.914;13.858;2023-05-25T03:06:40;98535.69;;;6.66;100.00
36190;BME280;22232;50.914;13.858;2023-05-25T03:09:12;98525.09;;;6.66;100.00
36190;BME280;22232;50.914;13.858;2023-05-25T03:11:40;98534.47;;;6.69;100.00
36190;BME280;22232;50.914;13.858;2023-05-25T03:14:11;98539.66;;;6.77;100.00
36190;BME280;22232;50.914;13.858;2023-05-25T03:16:42;98534.84;;;6.87;100.00
36190;BME280;22232;50.914;13.858;2023-05-25T03:19:10;98544.59;;;7.02;100.00
36190;BME280;22232;50.914;13.858;2023-05-25T03:21:38;98534.56;;;7.19;100.00
36190;BME280;22232;50.914;13.858;2023-05-25T03:24:06;98534.72;;;7.39;100.00
36190;BME280;22232;50.914;13.858;2023-05-25T03:26:33;98533.03;;;7.59;100.00
36190;BME280;22232;50.914;13.858;2023-05-25T03:29:03;98530.56;;;7.86;100.00
36190;BME280;22232;50.914;13.858;2023-05-25T03:31:33;98539.09;;;8.16;100.00
36190;BME280;22232;50.914;13.858;2023-05-25T03:34:02;98544.78;;;8.47;100.00
36190;BME280;22232;50.914;13.858;2023-05-25T03:36:31;98540.16;;;8.76;100.00
36190;BME280;22232;50.914;13.858;2023-05-25T03:39:00;98547.38;;;9.09;100.00
36190;BME280;22232;50.914;13.858;2023-05-25T03:41:28;98539.84;;;9.39;100.00
36190;BME280;22232;50.914;13.858;2023-05-25T03:43:56;98547.19;;;9.70;100.00
36190;BME280;22232;50.914;13.858;2023-05-25T03:46:24;98550.19;;;10.07;100.00
36190;BME280;22232;50.914;13.858;2023-05-25T03:48:51;98558.69;;;10.49;100.00
36190;BME280;22232;50.914;13.858;2023-05-25T03:51:19;98557.78;;;10.75;100.00
36190;BME280;22232;50.914;13.858;2023-05-25T03:53:47;98558.00;;;11.05;100.00
36190;BME280;22232;50.914;13.858;2023-05-25T03:56:14;98559.47;;;11.33;100.00
36190;BME280;22232;50.914;13.858;2023-05-25T03:58:42;98553.41;;;11.69;100.00
36190;BME280;22232;50.914;13.858;2023-05-25T04:01:09;98554.59;;;11.98;100.00
36190;BME280;22232;50.914;13.858;2023-05-25T04:03:38;98550.91;;;12.36;100.00
36190;BME280;22232;50.914;13.858;2023-05-25T04:06:07;98550.06;;;12.72;100.00
36190;BME280;22232;50.914;13.858;2023-05-25T04:08:34;98559.72;;;13.03;100.00
36190;BME280;22232;50.914;13.858;2023-05-25T04:11:03;98561.22;;;13.41;100.00
36190;BME280;22232;50.914;13.858;2023-05-25T04:13:31;98564.19;;;13.87;94.99
36190;BME280;22232;50.914;13.858;2023-05-25T04:16:04;98566.13;;;14.15;91.47
36190;BME280;22232;50.914;13.858;2023-05-25T04:18:32;98568.53;;;14.63;89.05
36190;BME280;22232;50.914;13.858;2023-05-25T04:21:00;98570.03;;;14.71;90.53
36190;BME280;22232;50.914;13.858;2023-05-25T04:23:27;98567.81;;;14.68;93.05
36190;BME280;22232;50.914;13.858;2023-05-25T04:25:55;98573.03;;;15.03;88.26
36190;BME280;22232;50.914;13.858;2023-05-25T04:28:23;98570.34;;;15.49;80.26
36190;BME280;22232;50.914;13.858;2023-05-25T04:31:11;98577.25;;;15.73;77.94
36190;BME280;22232;50.914;13.858;2023-05-25T04:33:48;98568.25;;;16.01;75.39
36190;BME280;22232;50.914;13.858;2023-05-25T04:36:39;98568.69;;;16.15;73.01
36190;BME280;22232;50.914;13.858;2023-05-25T04:39:11;98564.47;;;16.63;73.95
36190;BME280;22232;50.914;13.858;2023-05-25T04:41:45;98570.88;;;17.01;66.75
36190;BME280;22232;50.914;13.858;2023-05-25T04:44:13;98564.84;;;17.21;69.28
36190;BME280;22232;50.914;13.858;2023-05-25T04:46:45;98565.28;;;17.35;68.31
36190;BME280;22232;50.914;13.858;2023-05-25T04:49:20;98569.72;;;17.51;67.96
36190;BME280;22232;50.914;13.858;2023-05-25T04:51:47;98570.47;;;17.47;68.00
36190;BME280;22232;50.914;13.858;2023-05-25T04:54:15;98572.03;;;17.70;63.94
36190;BME280;22232;50.914;13.858;2023-05-25T04:56:43;98570.88;;;17.93;62.82
36190;BME280;22232;50.914;13.858;2023-05-25T04:59:10;98575.38;;;17.82;63.98
36190;BME280;22232;50.914;13.858;2023-05-25T05:01:38;98573.34;;;18.04;61.89
36190;BME280;22232;50.914;13.858;2023-05-25T05:04:10;98579.41;;;18.22;64.02
36190;BME280;22232;50.914;13.858;2023-05-25T05:06:38;98580.13;;;18.07;63.54
36190;BME280;22232;50.914;13.858;2023-05-25T05:09:07;98577.28;;;18.29;62.74
36190;BME280;22232;50.914;13.858;2023-05-25T05:11:35;98578.41;;;18.96;60.43
36190;BME280;22232;50.914;13.858;2023-05-25T05:14:04;98575.94;;;18.89;61.86
36190;BME280;22232;50.914;13.858;2023-05-25T05:16:32;98568.66;;;18.85;60.42
36190;BME280;22232;50.914;13.858;2023-05-25T05:19:02;98571.69;;;19.29;61.53
36190;BME280;22232;50.914;13.858;2023-05-25T05:21:30;98573.34;;;19.40;58.74
36190;BME280;22232;50.914;13.858;2023-05-25T05:24:03;98574.72;;;19.58;59.25
36190;BME280;22232;50.914;13.858;2023-05-25T05:26:31;98578.00;;;19.70;59.73
36190;BME280;22232;50.914;13.858;2023-05-25T05:29:15;98575.81;;;20.03;57.89
36190;BME280;22232;50.914;13.858;2023-05-25T05:31:45;98577.41;;;20.09;57.91
36190;BME280;22232;50.914;13.858;2023-05-25T05:34:13;98572.81;;;20.05;55.49
36190;BME280;22232;50.914;13.858;2023-05-25T05:36:40;98573.91;;;19.99;57.46
36190;BME280;22232;50.914;13.858;2023-05-25T05:39:23;98570.00;;;20.46;54.82
36190;BME280;22232;50.914;13.858;2023-05-25T05:41:51;98572.69;;;20.56;53.25
36190;BME280;22232;50.914;13.858;2023-05-25T05:44:19;98567.22;;;20.71;53.62
36190;BME280;22232;50.914;13.858;2023-05-25T05:46:47;98559.88;;;20.77;50.32
36190;BME280;22232;50.914;13.858;2023-05-25T05:49:15;98566.41;;;20.76;52.71
36190;BME280;22232;50.914;13.858;2023-05-25T05:51:43;98568.00;;;20.82;53.46
36190;BME280;22232;50.914;13.858;2023-05-25T05:54:10;98572.22;;;21.03;50.30
36190;BME280;22232;50.914;13.858;2023-05-25T05:56:38;98566.91;;;20.78;49.94
36190;BME280;22232;50.914;13.858;2023-05-25T05:59:06;98572.88;;;20.75;50.92
36190;BME280;22232;50.914;13.858;2023-05-25T06:01:35;98570.81;;;20.46;50.97
36190;BME280;22232;50.914;13.858;2023-05-25T06:04:06;98569.88;;;20.81;51.93
36190;BME280;22232;50.914;13.858;2023-05-25T06:06:35;98565.41;;;21.06;51.33
36190;BME280;22232;50.914;13.858;2023-05-25T06:09:04;98566.38;;;21.25;51.38
36190;BME280;22232;50.914;13.858;2023-05-25T06:11:35;98574.19;;;21.37;49.34
36190;BME280;22232;50.914;13.858;2023-05-25T06:14:04;98571.00;;;21.25;49.17
36190;BME280;22232;50.914;13.858;2023-05-25T06:16:32;98578.13;;;21.11;50.64
36190;BME280;22232;50.914;13.858;2023-05-25T06:19:00;98580.91;;;21.45;50.85
36190;BME280;22232;50.914;13.858;2023-05-25T06:21:27;98575.53;;;21.74;51.19
36190;BME280;22232;50.914;13.858;2023-05-25T06:23:55;98577.63;;;21.48;50.22
36190;BME280;22232;50.914;13.858;2023-05-25T06:26:25;98576.75;;;21.13;50.40
36190;BME280;22232;50.914;13.858;2023-05-25T06:28:55;98580.63;;;21.81;50.10
36190;BME280;22232;50.914;13.858;2023-05-25T06:31:24;98573.75;;;22.23;48.19
36190;BME280;22232;50.914;13.858;2023-05-25T06:33:51;98571.78;;;21.70;50.26
36190;BME280;22232;50.914;13.858;2023-05-25T06:36:20;98578.94;;;21.85;48.08
36190;BME280;22232;50.914;13.858;2023-05-25T06:38:48;98578.72;;;21.81;48.95
36190;BME280;22232;50.914;13.858;2023-05-25T06:41:16;98579.22;;;21.88;47.18
36190;BME280;22232;50.914;13.858;2023-05-25T06:43:45;98579.97;;;21.60;47.08
36190;BME280;22232;50.914;13.858;2023-05-25T06:46:21;98582.16;;;21.18;48.36
36190;BME280;22232;50.914;13.858;2023-05-25T06:48:50;98576.28;;;21.45;49.17
36190;BME280;22232;50.914;13.858;2023-05-25T06:51:18;98574.63;;;21.84;48.27
36190;BME280;22232;50.914;13.858;2023-05-25T06:53:45;98585.94;;;21.17;47.77
36190;BME280;22232;50.914;13.858;2023-05-25T06:56:13;98591.72;;;20.20;47.62
36190;BME280;22232;50.914;13.858;2023-05-25T06:58:40;98582.31;;;19.87;50.40
36190;BME280;22232;50.914;13.858;2023-05-25T07:01:08;98578.13;;;20.56;49.38
36190;BME280;22232;50.914;13.858;2023-05-25T07:03:35;98582.31;;;19.87;50.29
36190;BME280;22232;50.914;13.858;2023-05-25T07:06:05;98580.91;;;20.20;54.83
36190;BME280;22232;50.914;13.858;2023-05-25T07:08:33;98584.56;;;18.76;54.27
36190;BME280;22232;50.914;13.858;2023-05-25T07:11:01;98586.66;;;18.64;58.59
36190;BME280;22232;50.914;13.858;2023-05-25T07:13:28;98582.47;;;19.03;62.19
36190;BME280;22232;50.914;13.858;2023-05-25T07:15:56;98589.59;;;18.62;56.22
36190;BME280;22232;50.914;13.858;2023-05-25T07:18:24;98581.94;;;18.96;59.16
36190;BME280;22232;50.914;13.858;2023-05-25T07:20:52;98588.72;;;19.09;57.84
36190;BME280;22232;50.914;13.858;2023-05-25T07:23:20;98582.91;;;18.22;64.49
36190;BME280;22232;50.914;13.858;2023-05-25T07:25:47;98589.03;;;17.38;65.49
36190;BME280;22232;50.914;13.858;2023-05-25T07:28:15;98599.41;;;17.83;64.16
36190;BME280;22232;50.914;13.858;2023-05-25T07:30:43;98601.44;;;17.39;75.41
36190;BME280;22232;50.914;13.858;2023-05-25T07:33:10;98594.69;;;16.65;71.63
36190;BME280;22232;50.914;13.858;2023-05-25T07:35:38;98591.97;;;16.43;87.61
36190;BME280;22232;50.914;13.858;2023-05-25T07:38:06;98591.47;;;16.68;81.69
36190;BME280;22232;50.914;13.858;2023-05-25T07:40:33;98593.06;;;17.40;77.29
36190;BME280;22232;50.914;13.858;2023-05-25T07:43:01;98591.81;;;17.21;70.11
36190;BME280;22232;50.914;13.858;2023-05-25T07:45:28;98593.50;;;17.86;69.25
36190;BME280;22232;50.914;13.858;2023-05-25T07:47:56;98593.75;;;18.80;62.35
36190;BME280;22232;50.914;13.858;2023-05-25T07:50:24;98597.97;;;18.08;64.11
36190;BME280;22232;50.914;13.858;2023-05-25T07:52:51;98599.91;;;18.18;64.07
36190;BME280;22232;50.914;13.858;2023-05-25T07:55:19;98604.84;;;18.78;64.66
36190;BME280;22232;50.914;13.858;2023-05-25T07:57:46;98609.19;;;18.85;57.65
36190;BME280;22232;50.914;13.858;2023-05-25T08:00:14;98599.06;;;19.43;56.97
36190;BME280;22232;50.914;13.858;2023-05-25T08:06:14;98605.47;;;18.01;57.43
36190;BME280;22232;50.914;13.858;2023-05-25T08:08:42;98605.56;;;18.11;64.99
36190;BME280;22232;50.914;13.858;2023-05-25T08:11:14;98612.75;;;19.00;58.52
36190;BME280;22232;50.914;13.858;2023-05-25T08:13:42;98610.16;;;18.68;55.19
36190;BME280;22232;50.914;13.858;2023-05-25T08:16:10;98611.72;;;18.06;62.04
36190;BME280;22232;50.914;13.858;2023-05-25T08:18:37;98602.78;;;17.69;66.53
36190;BME280;22232;50.914;13.858;2023-05-25T08:21:05;98609.06;;;16.98;69.66
36190;BME280;22232;50.914;13.858;2023-05-25T08:23:33;98608.13;;;17.09;65.05
36190;BME280;22232;50.914;13.858;2023-05-25T08:26:00;98615.88;;;17.28;69.47
36190;BME280;22232;50.914;13.858;2023-05-25T08:28:37;98611.50;;;17.49;65.57
36190;BME280;22232;50.914;13.858;2023-05-25T08:31:05;98606.72;;;17.29;60.48
36190;BME280;22232;50.914;13.858;2023-05-25T08:33:33;98614.97;;;16.95;60.00
36190;BME280;22232;50.914;13.858;2023-05-25T08:36:00;98614.16;;;16.94;63.88
36190;BME280;22232;50.914;13.858;2023-05-25T08:38:28;98614.19;;;17.49;62.97
36190;BME280;22232;50.914;13.858;2023-05-25T08:41:03;98613.75;;;18.26;55.34
36190;BME280;22232;50.914;13.858;2023-05-25T08:43:32;98616.34;;;18.53;53.02
36190;BME280;22232;50.914;13.858;2023-05-25T08:46:05;98618.09;;;17.95;52.27
36190;BME280;22232;50.914;13.858;2023-05-25T08:48:34;98618.09;;;18.32;56.08
36190;BME280;22232;50.914;13.858;2023-05-25T08:51:10;98619.13;;;17.89;60.76
36190;BME280;22232;50.914;13.858;2023-05-25T08:53:40;98616.88;;;18.13;54.55
36190;BME280;22232;50.914;13.858;2023-05-25T08:56:15;98623.59;;;18.53;54.37
36190;BME280;22232;50.914;13.858;2023-05-25T08:58:49;98619.88;;;19.27;57.52
36190;BME280;22232;50.914;13.858;2023-05-25T09:01:20;98613.13;;;20.11;55.53
36190;BME280;22232;50.914;13.858;2023-05-25T09:03:49;98617.81;;;18.76;55.67
36190;BME280;22232;50.914;13.858;2023-05-25T09:06:17;98625.25;;;18.54;53.53
36190;BME280;22232;50.914;13.858;2023-05-25T09:08:45;98622.03;;;17.77;55.43
36190;BME280;22232;50.914;13.858;2023-05-25T09:11:13;98623.94;;;17.55;61.52
36190;BME280;22232;50.914;13.858;2023-05-25T09:13:48;98627.06;;;17.69;65.50
36190;BME280;22232;50.914;13.858;2023-05-25T09:16:17;98633.72;;;17.88;55.55
36190;BME280;22232;50.914;13.858;2023-05-25T09:18:45;98638.22;;;17.77;58.17
36190;BME280;22232;50.914;13.858;2023-05-25T09:21:13;98630.38;;;18.55;61.55
36190;BME280;22232;50.914;13.858;2023-05-25T09:23:40;98628.25;;;19.20;55.78
36190;BME280;22232;50.914;13.858;2023-05-25T09:26:08;98619.25;;;18.42;57.04
36190;BME280;22232;50.914;13.858;2023-05-25T09:28:44;98630.22;;;17.33;63.17
36190;BME280;22232;50.914;13.858;2023-05-25T09:31:15;98625.75;;;17.44;72.55
36190;BME280;22232;50.914;13.858;2023-05-25T09:33:44;98633.16;;;18.23;63.70
36190;BME280;22232;50.914;13.858;2023-05-25T09:36:12;98633.81;;;17.71;56.57
36190;BME280;22232;50.914;13.858;2023-05-25T09:38:42;98640.72;;;17.62;56.45
36190;BME280;22232;50.914;13.858;2023-05-25T09:41:11;98639.72;;;18.32;54.64
36190;BME280;22232;50.914;13.858;2023-05-25T09:43:38;98638.47;;;18.55;57.39
36190;BME280;22232;50.914;13.858;2023-05-25T09:46:20;98649.97;;;17.98;54.61
36190;BME280;22232;50.914;13.858;2023-05-25T09:48:48;98649.91;;;17.61;62.92
36190;BME280;22232;50.914;13.858;2023-05-25T09:51:17;98646.53;;;18.03;58.63
36190;BME280;22232;50.914;13.858;2023-05-25T09:53:46;98644.06;;;18.01;55.82
36190;BME280;22232;50.914;13.858;2023-05-25T09:56:13;98640.72;;;18.69;57.14
36190;BME280;22232;50.914;13.858;2023-05-25T09:58:41;98649.34;;;18.66;54.98
36190;BME280;22232;50.914;13.858;2023-05-25T10:01:08;98646.75;;;18.86;55.10
36190;BME280;22232;50.914;13.858;2023-05-25T10:03:44;98646.38;;;19.40;52.56
36190;BME280;22232;50.914;13.858;2023-05-25T10:06:31;98649.44;;;19.80;51.84
36190;BME280;22232;50.914;13.858;2023-05-25T10:09:00;98642.91;;;19.55;58.14
36190;BME280;22232;50.914;13.858;2023-05-25T10:11:28;98642.38;;;19.58;54.49
36190;BME280;22232;50.914;13.858;2023-05-25T10:13:57;98650.47;;;19.53;50.86
36190;BME280;22232;50.914;13.858;2023-05-25T10:16:32;98655.41;;;19.92;52.27
36190;BME280;22232;50.914;13.858;2023-05-25T10:19:06;98647.75;;;20.50;53.94
36190;BME280;22232;50.914;13.858;2023-05-25T10:21:37;98645.31;;;20.64;51.09
36190;BME280;22232;50.914;13.858;2023-05-25T10:24:12;98645.63;;;21.17;48.32
36190;BME280;22232;50.914;13.858;2023-05-25T10:26:46;98645.09;;;20.20;49.84
36190;BME280;22232;50.914;13.858;2023-05-25T10:29:16;98636.72;;;20.11;49.81
36190;BME280;22232;50.914;13.858;2023-05-25T10:31:46;98646.94;;;19.37;51.77
36190;BME280;22232;50.914;13.858;2023-05-25T10:34:14;98639.59;;;19.22;54.56
36190;BME280;22232;50.914;13.858;2023-05-25T10:36:43;98642.88;;;19.30;54.53
36190;BME280;22232;50.914;13.858;2023-05-25T10:39:12;98638.75;;;18.59;57.27
36190;BME280;22232;50.914;13.858;2023-05-25T10:41:41;98637.44;;;18.62;73.41
36190;BME280;22232;50.914;13.858;2023-05-25T10:44:10;98639.56;;;18.54;59.58
36190;BME280;22232;50.914;13.858;2023-05-25T10:46:38;98636.34;;;19.20;57.80
36190;BME280;22232;50.914;13.858;2023-05-25T10:49:07;98640.72;;;19.62;52.30
36190;BME280;22232;50.914;13.858;2023-05-25T10:51:38;98637.25;;;19.77;53.47
36190;BME280;22232;50.914;13.858;2023-05-25T10:54:07;98630.75;;;19.63;53.24
36190;BME280;22232;50.914;13.858;2023-05-25T10:56:34;98629.41;;;19.86;50.97
36190;BME280;22232;50.914;13.858;2023-05-25T10:59:02;98626.34;;;20.54;52.52
36190;BME280;22232;50.914;13.858;2023-05-25T11:01:30;98630.75;;;20.24;50.44
36190;BME280;22232;50.914;13.858;2023-05-25T11:09:23;98624.53;;;20.13;58.24
36190;BME280;22232;50.914;13.858;2023-05-25T11:14:20;98615.91;;;21.86;51.41
36190;BME280;22232;50.914;13.858;2023-05-25T11:17:06;98616.94;;;22.48;51.69
36190;BME280;22232;50.914;13.858;2023-05-25T11:19:52;98605.03;;;22.68;49.31
36190;BME280;22232;50.914;13.858;2023-05-25T11:22:22;98601.22;;;22.45;48.10
36190;BME280;22232;50.914;13.858;2023-05-25T11:24:51;98610.16;;;21.53;47.41
36190;BME280;22232;50.914;13.858;2023-05-25T11:27:23;98607.34;;;20.69;50.59
36190;BME280;22232;50.914;13.858;2023-05-25T11:29:52;98619.41;;;19.86;51.85
36190;BME280;22232;50.914;13.858;2023-05-25T11:32:20;98611.22;;;19.51;52.53
36190;BME280;22232;50.914;13.858;2023-05-25T11:34:53;98615.84;;;20.11;54.63
36190;BME280;22232;50.914;13.858;2023-05-25T11:37:22;98610.81;;;20.80;52.53
36190;BME280;22232;50.914;13.858;2023-05-25T11:39:55;98601.97;;;20.59;49.77
36190;BME280;22232;50.914;13.858;2023-05-25T11:42:23;98609.91;;;20.04;51.21
36190;BME280;22232;50.914;13.858;2023-05-25T11:44:51;98605.81;;;19.40;55.33
36190;BME280;22232;50.914;13.858;2023-05-25T11:47:21;98612.28;;;19.24;54.64
36190;BME280;22232;50.914;13.858;2023-05-25T11:49:50;98608.56;;;19.91;57.87
36190;BME280;22232;50.914;13.858;2023-05-25T11:52:19;98604.72;;;20.33;52.17
36190;BME280;22232;50.914;13.858;2023-05-25T11:54:48;98611.28;;;19.86;54.11
36190;BME280;22232;50.914;13.858;2023-05-25T11:57:24;98612.91;;;19.98;52.35
36190;BME280;22232;50.914;13.858;2023-05-25T11:59:53;98602.56;;;20.30;49.75
36190;BME280;22232;50.914;13.858;2023-05-25T12:02:22;98608.81;;;19.39;47.83
36190;BME280;22232;50.914;13.858;2023-05-25T12:04:55;98603.94;;;19.51;49.75
36190;BME280;22232;50.914;13.858;2023-05-25T12:07:24;98601.97;;;19.11;48.34
36190;BME280;22232;50.914;13.858;2023-05-25T12:10:06;98600.91;;;19.22;52.45
36190;BME280;22232;50.914;13.858;2023-05-25T12:12:45;98600.47;;;19.81;51.82
36190;BME280;22232;50.914;13.858;2023-05-25T12:15:19;98599.34;;;20.18;51.16
36190;BME280;22232;50.914;13.858;2023-05-25T12:17:48;98596.91;;;19.81;53.75
36190;BME280;22232;50.914;13.858;2023-05-25T12:20:17;98593.94;;;19.77;52.20
36190;BME280;22232;50.914;13.858;2023-05-25T12:22:46;98593.91;;;19.62;50.66
36190;BME280;22232;50.914;13.858;2023-05-25T12:25:18;98587.69;;;19.46;50.13
36190;BME280;22232;50.914;13.858;2023-05-25T12:27:46;98588.00;;;19.65;52.30
36190;BME280;22232;50.914;13.858;2023-05-25T12:30:13;98579.84;;;19.34;50.85
36190;BME280;22232;50.914;13.858;2023-05-25T12:33:00;98586.38;;;19.94;53.06
36190;BME280;22232;50.914;13.858;2023-05-25T12:35:48;98583.91;;;20.19;50.17
36190;BME280;22232;50.914;13.858;2023-05-25T12:38:17;98578.06;;;20.66;51.06
36190;BME280;22232;50.914;13.858;2023-05-25T12:40:46;98574.34;;;20.42;48.83
36190;BME280;22232;50.914;13.858;2023-05-25T12:43:14;98576.88;;;20.12;48.87
36190;BME280;22232;50.914;13.858;2023-05-25T12:45:43;98570.31;;;20.29;49.21
36190;BME280;22232;50.914;13.858;2023-05-25T12:48:11;98561.03;;;20.60;47.03
36190;BME280;22232;50.914;13.858;2023-05-25T12:50:55;98566.94;;;20.73;48.34
36190;BME280;22232;50.914;13.858;2023-05-25T12:53:23;98571.44;;;20.07;47.34
36190;BME280;22232;50.914;13.858;2023-05-25T12:56:03;98575.50;;;20.05;49.73
36190;BME280;22232;50.914;13.858;2023-05-25T12:58:31;98566.88;;;20.03;48.49
36190;BME280;22232;50.914;13.858;2023-05-25T13:00:59;98562.56;;;19.91;50.64
36190;BME280;22232;50.914;13.858;2023-05-25T13:03:27;98572.25;;;20.08;47.64
36190;BME280;22232;50.914;13.858;2023-05-25T13:05:59;98564.91;;;20.34;46.32
36190;BME280;22232;50.914;13.858;2023-05-25T13:08:28;98558.38;;;20.35;47.35
36190;BME280;22232;50.914;13.858;2023-05-25T13:10:55;98560.88;;;20.21;48.17
36190;BME280;22232;50.914;13.858;2023-05-25T13:13:23;98560.34;;;19.99;48.07
36190;BME280;22232;50.914;13.858;2023-05-25T13:15:50;98562.97;;;20.39;50.10